sensor_id;sensor_type;location;lat;lon;timestamp;P1;durP1;ratioP1;P2;durP2;ratioP2
65656;SDS011;57397;50.096;14.404;2023-03-13T00:00:52;3.55;;;2.05;;
65656;SDS011;57397;50.096;14.404;2023-03-13T00:03:19;2.65;;;1.75;;
65656;SDS011;57397;50.096;14.404;2023-03-13T00:05:44;3.78;;;1.92;;
65656;SDS011;57397;50.096;14.404;2023-03-13T00:08:10;3.17;;;1.73;;
65656;SDS011;57397;50.096;14.404;2023-03-13T00:10:36;3.35;;;1.92;;
65656;SDS011;57397;50.096;14.404;2023-03-13T00:13:03;2.45;;;1.67;;
65656;SDS011;57397;50.096;14.404;2023-03-13T00:15:28;3.35;;;1.80;;
65656;SDS011;57397;50.096;14.404;2023-03-13T00:17:54;3.60;;;1.70;;
65656;SDS011;57397;50.096;14.404;2023-03-13T00:20:19;2.83;;;1.65;;
65656;SDS011;57397;50.096;14.404;2023-03-13T00:22:45;4.45;;;1.83;;
65656;SDS011;57397;50.096;14.404;2023-03-13T00:25:10;2.63;;;1.60;;
65656;SDS011;57397;50.096;14.404;2023-03-13T00:27:36;2.38;;;1.42;;
65656;SDS011;57397;50.096;14.404;2023-03-13T00:30:02;2.45;;;1.50;;
65656;SDS011;57397;50.096;14.404;2023-03-13T00:32:27;3.22;;;1.67;;
65656;SDS011;57397;50.096;14.404;2023-03-13T00:34:53;2.28;;;1.55;;
65656;SDS011;57397;50.096;14.404;2023-03-13T00:37:18;2.72;;;1.80;;
65656;SDS011;57397;50.096;14.404;2023-03-13T00:39:44;2.33;;;1.42;;
65656;SDS011;57397;50.096;14.404;2023-03-13T00:42:09;2.65;;;1.80;;
65656;SDS011;57397;50.096;14.404;2023-03-13T00:44:35;4.22;;;1.63;;
65656;SDS011;57397;50.096;14.404;2023-03-13T00:47:00;3.22;;;1.80;;
65656;SDS011;57397;50.096;14.404;2023-03-13T00:49:26;2.35;;;1.60;;
65656;SDS011;57397;50.096;14.404;2023-03-13T00:51:51;4.35;;;1.73;;
65656;SDS011;57397;50.096;14.404;2023-03-13T00:54:17;2.15;;;1.60;;
65656;SDS011;57397;50.096;14.404;2023-03-13T00:56:42;3.20;;;1.70;;
65656;SDS011;57397;50.096;14.404;2023-03-13T00:59:08;2.08;;;1.70;;
65656;SDS011;57397;50.096;14.404;2023-03-13T01:01:35;2.72;;;1.58;;
65656;SDS011;57397;50.096;14.404;2023-03-13T01:04:01;3.15;;;1.70;;
65656;SDS011;57397;50.096;14.404;2023-03-13T01:06:30;3.85;;;1.50;;
65656;SDS011;57397;50.096;14.404;2023-03-13T01:08:57;3.78;;;1.90;;
65656;SDS011;57397;50.096;14.404;2023-03-13T01:11:27;3.75;;;1.77;;
65656;SDS011;57397;50.096;14.404;2023-03-13T01:13:55;2.55;;;1.50;;
65656;SDS011;57397;50.096;14.404;2023-03-13T01:16:25;2.78;;;1.58;;
65656;SDS011;57397;50.096;14.404;2023-03-13T01:18:53;3.05;;;1.60;;
65656;SDS011;57397;50.096;14.404;2023-03-13T01:21:23;2.05;;;1.48;;
65656;SDS011;57397;50.096;14.404;2023-03-13T01:23:50;2.72;;;1.73;;
65656;SDS011;57397;50.096;14.404;2023-03-13T01:26:16;1.98;;;1.40;;
65656;SDS011;57397;50.096;14.404;2023-03-13T01:28:42;4.30;;;1.50;;
65656;SDS011;57397;50.096;14.404;2023-03-13T01:33:52;2.15;;;1.50;;
65656;SDS011;57397;50.096;14.404;2023-03-13T01:36:20;3.42;;;1.55;;
65656;SDS011;57397;50.096;14.404;2023-03-13T01:38:47;2.92;;;1.60;;
65656;SDS011;57397;50.096;14.404;2023-03-13T01:41:13;3.08;;;1.50;;
65656;SDS011;57397;50.096;14.404;2023-03-13T01:43:39;3.80;;;1.42;;
65656;SDS011;57397;50.096;14.404;2023-03-13T01:48:56;2.72;;;1.65;;
65656;SDS011;57397;50.096;14.404;2023-03-13T01:51:34;2.38;;;1.40;;
65656;SDS011;57397;50.096;14.404;2023-03-13T01:56:44;2.70;;;1.70;;
65656;SDS011;57397;50.096;14.404;2023-03-13T01:59:14;3.28;;;1.50;;
65656;SDS011;57397;50.096;14.404;2023-03-13T02:01:41;2.97;;;1.50;;
65656;SDS011;57397;50.096;14.404;2023-03-13T02:04:08;1.95;;;1.40;;
65656;SDS011;57397;50.096;14.404;2023-03-13T02:06:35;2.70;;;1.40;;
65656;SDS011;57397;50.096;14.404;2023-03-13T02:09:04;2.67;;;1.50;;
65656;SDS011;57397;50.096;14.404;2023-03-13T02:14:10;3.25;;;1.50;;
65656;SDS011;57397;50.096;14.404;2023-03-13T02:16:36;1.83;;;1.40;;
65656;SDS011;57397;50.096;14.404;2023-03-13T02:19:04;2.53;;;1.50;;
65656;SDS011;57397;50.096;14.404;2023-03-13T02:22:01;3.45;;;1.40;;
65656;SDS011;57397;50.096;14.404;2023-03-13T02:27:15;1.73;;;1.40;;
65656;SDS011;57397;50.096;14.404;2023-03-13T02:29:40;2.20;;;1.45;;
65656;SDS011;57397;50.096;14.404;2023-03-13T02:32:07;2.35;;;1.52;;
65656;SDS011;57397;50.096;14.404;2023-03-13T02:34:33;2.00;;;1.40;;
65656;SDS011;57397;50.096;14.404;2023-03-13T02:37:00;2.22;;;1.30;;
65656;SDS011;57397;50.096;14.404;2023-03-13T02:39:26;2.55;;;1.40;;
65656;SDS011;57397;50.096;14.404;2023-03-13T02:41:52;2.95;;;1.70;;
65656;SDS011;57397;50.096;14.404;2023-03-13T02:44:18;1.83;;;1.38;;
65656;SDS011;57397;50.096;14.404;2023-03-13T02:46:47;3.00;;;1.50;;
65656;SDS011;57397;50.096;14.404;2023-03-13T02:51:50;2.53;;;1.30;;
65656;SDS011;57397;50.096;14.404;2023-03-13T02:54:19;1.92;;;1.30;;
65656;SDS011;57397;50.096;14.404;2023-03-13T02:56:50;1.77;;;1.20;;
65656;SDS011;57397;50.096;14.404;2023-03-13T02:59:18;1.83;;;1.40;;
65656;SDS011;57397;50.096;14.404;2023-03-13T03:01:44;2.47;;;1.23;;
65656;SDS011;57397;50.096;14.404;2023-03-13T03:04:09;2.00;;;1.20;;
65656;SDS011;57397;50.096;14.404;2023-03-13T03:06:35;1.73;;;1.30;;
65656;SDS011;57397;50.096;14.404;2023-03-13T03:09:01;1.52;;;1.20;;
65656;SDS011;57397;50.096;14.404;2023-03-13T03:11:27;2.38;;;1.40;;
65656;SDS011;57397;50.096;14.404;2023-03-13T03:13:52;2.53;;;1.20;;
65656;SDS011;57397;50.096;14.404;2023-03-13T03:16:18;2.10;;;1.33;;
65656;SDS011;57397;50.096;14.404;2023-03-13T03:18:44;1.85;;;1.33;;
65656;SDS011;57397;50.096;14.404;2023-03-13T03:21:10;1.77;;;1.27;;
65656;SDS011;57397;50.096;14.404;2023-03-13T03:23:36;2.60;;;1.30;;
65656;SDS011;57397;50.096;14.404;2023-03-13T03:26:03;2.20;;;1.17;;
65656;SDS011;57397;50.096;14.404;2023-03-13T03:28:29;2.00;;;1.27;;
65656;SDS011;57397;50.096;14.404;2023-03-13T03:30:55;1.70;;;1.10;;
65656;SDS011;57397;50.096;14.404;2023-03-13T03:33:21;2.25;;;1.20;;
65656;SDS011;57397;50.096;14.404;2023-03-13T03:35:47;2.58;;;1.33;;
65656;SDS011;57397;50.096;14.404;2023-03-13T03:38:13;2.78;;;1.20;;
65656;SDS011;57397;50.096;14.404;2023-03-13T03:40:39;3.00;;;1.55;;
65656;SDS011;57397;50.096;14.404;2023-03-13T03:43:05;1.60;;;1.10;;
65656;SDS011;57397;50.096;14.404;2023-03-13T03:45:30;2.03;;;1.33;;
65656;SDS011;57397;50.096;14.404;2023-03-13T03:47:56;2.22;;;1.30;;
65656;SDS011;57397;50.096;14.404;2023-03-13T03:50:24;1.52;;;1.10;;
65656;SDS011;57397;50.096;14.404;2023-03-13T03:52:50;2.45;;;1.30;;
65656;SDS011;57397;50.096;14.404;2023-03-13T03:55:16;1.63;;;1.30;;
65656;SDS011;57397;50.096;14.404;2023-03-13T03:57:42;1.80;;;1.30;;
65656;SDS011;57397;50.096;14.404;2023-03-13T04:00:08;2.33;;;1.30;;
65656;SDS011;57397;50.096;14.404;2023-03-13T04:02:36;2.20;;;1.15;;
65656;SDS011;57397;50.096;14.404;2023-03-13T04:05:01;1.60;;;1.17;;
65656;SDS011;57397;50.096;14.404;2023-03-13T04:07:28;1.75;;;1.15;;
65656;SDS011;57397;50.096;14.404;2023-03-13T04:09:53;1.70;;;1.20;;
65656;SDS011;57397;50.096;14.404;2023-03-13T04:12:19;1.88;;;1.10;;
65656;SDS011;57397;50.096;14.404;2023-03-13T04:14:45;1.73;;;1.27;;
65656;SDS011;57397;50.096;14.404;2023-03-13T04:17:10;1.80;;;1.10;;
65656;SDS011;57397;50.096;14.404;2023-03-13T04:19:36;2.33;;;1.20;;
65656;SDS011;57397;50.096;14.404;2023-03-13T04:22:01;1.70;;;1.20;;
65656;SDS011;57397;50.096;14.404;2023-03-13T04:24:27;2.60;;;1.20;;
65656;SDS011;57397;50.096;14.404;2023-03-13T04:26:52;2.83;;;1.20;;
65656;SDS011;57397;50.096;14.404;2023-03-13T04:29:18;4.03;;;1.30;;
65656;SDS011;57397;50.096;14.404;2023-03-13T04:31:43;1.48;;;1.08;;
65656;SDS011;57397;50.096;14.404;2023-03-13T04:34:09;2.08;;;1.10;;
65656;SDS011;57397;50.096;14.404;2023-03-13T04:36:35;2.33;;;1.25;;
65656;SDS011;57397;50.096;14.404;2023-03-13T04:39:00;2.00;;;1.02;;
65656;SDS011;57397;50.096;14.404;2023-03-13T04:41:28;2.22;;;1.08;;
65656;SDS011;57397;50.096;14.404;2023-03-13T04:43:54;3.08;;;1.42;;
65656;SDS011;57397;50.096;14.404;2023-03-13T04:46:19;2.97;;;1.20;;
65656;SDS011;57397;50.096;14.404;2023-03-13T04:48:45;3.85;;;1.20;;
65656;SDS011;57397;50.096;14.404;2023-03-13T04:51:11;2.40;;;1.20;;
65656;SDS011;57397;50.096;14.404;2023-03-13T04:53:36;2.55;;;1.20;;
65656;SDS011;57397;50.096;14.404;2023-03-13T04:56:02;2.83;;;1.20;;
65656;SDS011;57397;50.096;14.404;2023-03-13T04:58:28;2.05;;;1.20;;
65656;SDS011;57397;50.096;14.404;2023-03-13T05:00:53;2.03;;;1.20;;
65656;SDS011;57397;50.096;14.404;2023-03-13T05:03:20;2.13;;;1.20;;
65656;SDS011;57397;50.096;14.404;2023-03-13T05:05:46;2.63;;;1.10;;
65656;SDS011;57397;50.096;14.404;2023-03-13T05:08:12;3.42;;;1.35;;
65656;SDS011;57397;50.096;14.404;2023-03-13T05:10:37;4.32;;;1.80;;
65656;SDS011;57397;50.096;14.404;2023-03-13T05:13:03;2.15;;;1.08;;
65656;SDS011;57397;50.096;14.404;2023-03-13T05:15:29;2.60;;;1.20;;
65656;SDS011;57397;50.096;14.404;2023-03-13T05:17:54;3.90;;;1.20;;
65656;SDS011;57397;50.096;14.404;2023-03-13T05:20:20;2.83;;;1.33;;
65656;SDS011;57397;50.096;14.404;2023-03-13T05:22:45;3.65;;;1.05;;
65656;SDS011;57397;50.096;14.404;2023-03-13T05:25:11;3.40;;;1.15;;
65656;SDS011;57397;50.096;14.404;2023-03-13T05:27:36;2.00;;;1.15;;
65656;SDS011;57397;50.096;14.404;2023-03-13T05:30:02;2.83;;;1.25;;
65656;SDS011;57397;50.096;14.404;2023-03-13T05:32:27;1.95;;;1.30;;
65656;SDS011;57397;50.096;14.404;2023-03-13T05:34:53;1.77;;;1.08;;
65656;SDS011;57397;50.096;14.404;2023-03-13T05:37:19;2.33;;;1.30;;
65656;SDS011;57397;50.096;14.404;2023-03-13T05:39:44;2.60;;;1.30;;
65656;SDS011;57397;50.096;14.404;2023-03-13T05:42:10;2.58;;;1.23;;
65656;SDS011;57397;50.096;14.404;2023-03-13T05:44:35;2.75;;;1.23;;
65656;SDS011;57397;50.096;14.404;2023-03-13T05:47:01;2.42;;;1.15;;
65656;SDS011;57397;50.096;14.404;2023-03-13T05:49:26;3.72;;;1.40;;
65656;SDS011;57397;50.096;14.404;2023-03-13T05:51:52;3.05;;;1.30;;
65656;SDS011;57397;50.096;14.404;2023-03-13T05:54:17;2.40;;;1.40;;
65656;SDS011;57397;50.096;14.404;2023-03-13T05:56:43;2.47;;;1.10;;
65656;SDS011;57397;50.096;14.404;2023-03-13T05:59:09;2.78;;;1.23;;
65656;SDS011;57397;50.096;14.404;2023-03-13T06:01:34;2.63;;;1.20;;
65656;SDS011;57397;50.096;14.404;2023-03-13T06:04:00;1.65;;;1.00;;
65656;SDS011;57397;50.096;14.404;2023-03-13T06:06:25;1.85;;;1.08;;
65656;SDS011;57397;50.096;14.404;2023-03-13T06:08:51;3.33;;;1.35;;
65656;SDS011;57397;50.096;14.404;2023-03-13T06:11:17;1.95;;;1.15;;
65656;SDS011;57397;50.096;14.404;2023-03-13T06:13:43;3.22;;;1.15;;
65656;SDS011;57397;50.096;14.404;2023-03-13T06:16:08;3.40;;;1.17;;
65656;SDS011;57397;50.096;14.404;2023-03-13T06:18:34;3.22;;;1.25;;
65656;SDS011;57397;50.096;14.404;2023-03-13T06:21:00;2.08;;;1.08;;
65656;SDS011;57397;50.096;14.404;2023-03-13T06:23:26;2.70;;;1.20;;
65656;SDS011;57397;50.096;14.404;2023-03-13T06:25:53;2.58;;;1.30;;
65656;SDS011;57397;50.096;14.404;2023-03-13T06:28:18;2.70;;;1.10;;
65656;SDS011;57397;50.096;14.404;2023-03-13T06:30:44;2.05;;;1.13;;
65656;SDS011;57397;50.096;14.404;2023-03-13T06:33:10;2.45;;;1.15;;
65656;SDS011;57397;50.096;14.404;2023-03-13T06:35:38;2.05;;;1.20;;
65656;SDS011;57397;50.096;14.404;2023-03-13T06:38:05;2.53;;;1.10;;
65656;SDS011;57397;50.096;14.404;2023-03-13T06:40:31;1.92;;;1.20;;
65656;SDS011;57397;50.096;14.404;2023-03-13T06:42:56;2.88;;;1.00;;
65656;SDS011;57397;50.096;14.404;2023-03-13T06:45:22;2.58;;;1.20;;
65656;SDS011;57397;50.096;14.404;2023-03-13T06:47:47;3.40;;;1.20;;
65656;SDS011;57397;50.096;14.404;2023-03-13T06:50:15;2.13;;;1.20;;
65656;SDS011;57397;50.096;14.404;2023-03-13T06:52:41;2.53;;;1.40;;
65656;SDS011;57397;50.096;14.404;2023-03-13T06:55:07;2.28;;;1.25;;
65656;SDS011;57397;50.096;14.404;2023-03-13T06:57:33;3.90;;;1.50;;
65656;SDS011;57397;50.096;14.404;2023-03-13T06:59:58;3.70;;;1.38;;
65656;SDS011;57397;50.096;14.404;2023-03-13T07:02:24;1.98;;;1.10;;
65656;SDS011;57397;50.096;14.404;2023-03-13T07:04:49;2.47;;;1.20;;
65656;SDS011;57397;50.096;14.404;2023-03-13T07:07:15;4.85;;;1.38;;
65656;SDS011;57397;50.096;14.404;2023-03-13T07:09:40;3.67;;;1.60;;
65656;SDS011;57397;50.096;14.404;2023-03-13T07:12:06;2.90;;;1.20;;
65656;SDS011;57397;50.096;14.404;2023-03-13T07:14:32;3.58;;;1.10;;
65656;SDS011;57397;50.096;14.404;2023-03-13T07:16:58;3.50;;;1.17;;
65656;SDS011;57397;50.096;14.404;2023-03-13T07:19:24;1.55;;;0.95;;
65656;SDS011;57397;50.096;14.404;2023-03-13T07:21:51;3.10;;;1.05;;
65656;SDS011;57397;50.096;14.404;2023-03-13T07:24:17;2.42;;;1.00;;
65656;SDS011;57397;50.096;14.404;2023-03-13T07:26:43;3.35;;;1.30;;
65656;SDS011;57397;50.096;14.404;2023-03-13T07:29:09;4.65;;;1.38;;
65656;SDS011;57397;50.096;14.404;2023-03-13T07:31:35;2.63;;;1.13;;
65656;SDS011;57397;50.096;14.404;2023-03-13T07:34:00;2.90;;;1.27;;
65656;SDS011;57397;50.096;14.404;2023-03-13T07:36:26;4.03;;;1.13;;
65656;SDS011;57397;50.096;14.404;2023-03-13T07:38:51;1.73;;;1.17;;
65656;SDS011;57397;50.096;14.404;2023-03-13T07:41:18;3.03;;;1.40;;
65656;SDS011;57397;50.096;14.404;2023-03-13T07:43:46;3.58;;;1.40;;
65656;SDS011;57397;50.096;14.404;2023-03-13T07:46:12;3.13;;;1.33;;
65656;SDS011;57397;50.096;14.404;2023-03-13T07:48:40;2.28;;;1.10;;
65656;SDS011;57397;50.096;14.404;2023-03-13T07:51:09;1.90;;;1.30;;
65656;SDS011;57397;50.096;14.404;2023-03-13T07:53:38;2.30;;;1.02;;
65656;SDS011;57397;50.096;14.404;2023-03-13T07:56:09;2.65;;;1.13;;
65656;SDS011;57397;50.096;14.404;2023-03-13T07:58:37;2.70;;;1.10;;
65656;SDS011;57397;50.096;14.404;2023-03-13T08:03:42;4.82;;;1.35;;
65656;SDS011;57397;50.096;14.404;2023-03-13T08:06:09;1.70;;;1.05;;
65656;SDS011;57397;50.096;14.404;2023-03-13T08:08:36;2.63;;;1.23;;
65656;SDS011;57397;50.096;14.404;2023-03-13T08:11:03;2.35;;;1.30;;
65656;SDS011;57397;50.096;14.404;2023-03-13T08:13:34;2.28;;;1.20;;
65656;SDS011;57397;50.096;14.404;2023-03-13T08:16:04;2.88;;;1.13;;
65656;SDS011;57397;50.096;14.404;2023-03-13T08:18:31;2.28;;;1.17;;
65656;SDS011;57397;50.096;14.404;2023-03-13T08:21:00;2.70;;;1.15;;
65656;SDS011;57397;50.096;14.404;2023-03-13T08:23:27;2.28;;;1.23;;
65656;SDS011;57397;50.096;14.404;2023-03-13T08:25:52;2.90;;;1.30;;
65656;SDS011;57397;50.096;14.404;2023-03-13T08:28:18;2.55;;;1.45;;
65656;SDS011;57397;50.096;14.404;2023-03-13T08:30:43;2.53;;;1.20;;
65656;SDS011;57397;50.096;14.404;2023-03-13T08:33:09;3.55;;;1.20;;
65656;SDS011;57397;50.096;14.404;2023-03-13T08:35:35;1.67;;;1.10;;
65656;SDS011;57397;50.096;14.404;2023-03-13T08:38:00;3.33;;;1.17;;
65656;SDS011;57397;50.096;14.404;2023-03-13T08:40:27;2.28;;;1.25;;
65656;SDS011;57397;50.096;14.404;2023-03-13T08:42:52;2.22;;;1.20;;
65656;SDS011;57397;50.096;14.404;2023-03-13T08:45:18;1.92;;;1.15;;
65656;SDS011;57397;50.096;14.404;2023-03-13T08:47:44;2.15;;;1.38;;
65656;SDS011;57397;50.096;14.404;2023-03-13T08:50:09;2.30;;;1.15;;
65656;SDS011;57397;50.096;14.404;2023-03-13T08:52:35;3.15;;;1.27;;
65656;SDS011;57397;50.096;14.404;2023-03-13T08:55:00;1.95;;;1.10;;
65656;SDS011;57397;50.096;14.404;2023-03-13T08:57:26;2.38;;;1.20;;
65656;SDS011;57397;50.096;14.404;2023-03-13T08:59:51;2.20;;;1.27;;
65656;SDS011;57397;50.096;14.404;2023-03-13T09:02:17;2.75;;;1.33;;
65656;SDS011;57397;50.096;14.404;2023-03-13T09:04:45;2.97;;;1.40;;
65656;SDS011;57397;50.096;14.404;2023-03-13T09:07:11;2.15;;;1.20;;
65656;SDS011;57397;50.096;14.404;2023-03-13T09:09:37;2.17;;;1.13;;
65656;SDS011;57397;50.096;14.404;2023-03-13T09:12:03;2.38;;;1.17;;
65656;SDS011;57397;50.096;14.404;2023-03-13T09:14:28;2.92;;;1.30;;
65656;SDS011;57397;50.096;14.404;2023-03-13T09:16:54;2.72;;;1.38;;
65656;SDS011;57397;50.096;14.404;2023-03-13T09:19:20;2.83;;;1.42;;
65656;SDS011;57397;50.096;14.404;2023-03-13T09:21:46;3.08;;;1.27;;
65656;SDS011;57397;50.096;14.404;2023-03-13T09:24:13;2.92;;;1.40;;
65656;SDS011;57397;50.096;14.404;2023-03-13T09:26:40;4.28;;;1.50;;
65656;SDS011;57397;50.096;14.404;2023-03-13T09:29:05;2.22;;;1.27;;
65656;SDS011;57397;50.096;14.404;2023-03-13T09:31:34;2.83;;;1.60;;
65656;SDS011;57397;50.096;14.404;2023-03-13T09:33:59;3.00;;;1.58;;
65656;SDS011;57397;50.096;14.404;2023-03-13T09:36:25;2.58;;;1.38;;
65656;SDS011;57397;50.096;14.404;2023-03-13T09:38:55;2.80;;;1.30;;
65656;SDS011;57397;50.096;14.404;2023-03-13T09:41:23;2.15;;;1.20;;
65656;SDS011;57397;50.096;14.404;2023-03-13T09:54:49;3.10;;;1.55;;
65656;SDS011;57397;50.096;14.404;2023-03-13T10:02:54;2.25;;;1.20;;
65656;SDS011;57397;50.096;14.404;2023-03-13T10:05:32;2.05;;;1.10;;
65656;SDS011;57397;50.096;14.404;2023-03-13T10:08:08;2.40;;;1.25;;
65656;SDS011;57397;50.096;14.404;2023-03-13T10:10:54;2.28;;;1.02;;
65656;SDS011;57397;50.096;14.404;2023-03-13T10:13:34;2.80;;;1.30;;
65656;SDS011;57397;50.096;14.404;2023-03-13T10:16:07;1.50;;;1.00;;
65656;SDS011;57397;50.096;14.404;2023-03-13T10:18:34;2.45;;;1.15;;
65656;SDS011;57397;50.096;14.404;2023-03-13T10:21:03;2.25;;;1.20;;
65656;SDS011;57397;50.096;14.404;2023-03-13T10:26:03;2.17;;;1.27;;
65656;SDS011;57397;50.096;14.404;2023-03-13T10:28:29;3.55;;;1.17;;
65656;SDS011;57397;50.096;14.404;2023-03-13T10:31:17;1.65;;;1.00;;
65656;SDS011;57397;50.096;14.404;2023-03-13T10:33:51;2.20;;;1.10;;
65656;SDS011;57397;50.096;14.404;2023-03-13T10:36:17;1.65;;;1.08;;
65656;SDS011;57397;50.096;14.404;2023-03-13T10:38:51;1.85;;;0.88;;
65656;SDS011;57397;50.096;14.404;2023-03-13T10:46:42;3.05;;;0.90;;
65656;SDS011;57397;50.096;14.404;2023-03-13T10:49:14;2.03;;;0.90;;
65656;SDS011;57397;50.096;14.404;2023-03-13T10:51:54;1.48;;;1.08;;
65656;SDS011;57397;50.096;14.404;2023-03-13T10:54:24;1.40;;;0.77;;
65656;SDS011;57397;50.096;14.404;2023-03-13T10:56:51;1.20;;;0.88;;
65656;SDS011;57397;50.096;14.404;2023-03-13T10:59:24;1.80;;;0.90;;
65656;SDS011;57397;50.096;14.404;2023-03-13T11:01:50;1.95;;;0.95;;
65656;SDS011;57397;50.096;14.404;2023-03-13T11:04:18;1.98;;;0.95;;
65656;SDS011;57397;50.096;14.404;2023-03-13T11:06:58;1.73;;;1.02;;
65656;SDS011;57397;50.096;14.404;2023-03-13T11:09:29;1.45;;;0.90;;
65656;SDS011;57397;50.096;14.404;2023-03-13T11:12:05;1.63;;;0.85;;
65656;SDS011;57397;50.096;14.404;2023-03-13T11:14:57;1.40;;;0.90;;
65656;SDS011;57397;50.096;14.404;2023-03-13T11:17:42;2.10;;;1.00;;
65656;SDS011;57397;50.096;14.404;2023-03-13T11:25:34;1.13;;;0.88;;
65656;SDS011;57397;50.096;14.404;2023-03-13T11:36:30;1.83;;;0.80;;
65656;SDS011;57397;50.096;14.404;2023-03-13T11:44:22;1.58;;;0.85;;
65656;SDS011;57397;50.096;14.404;2023-03-13T11:47:11;1.73;;;0.90;;
65656;SDS011;57397;50.096;14.404;2023-03-13T11:52:54;1.23;;;0.80;;
65656;SDS011;57397;50.096;14.404;2023-03-13T11:58:34;1.33;;;0.70;;
65656;SDS011;57397;50.096;14.404;2023-03-13T12:03:41;0.95;;;0.70;;
65656;SDS011;57397;50.096;14.404;2023-03-13T12:06:28;1.08;;;0.70;;
65656;SDS011;57397;50.096;14.404;2023-03-13T12:09:14;1.42;;;0.70;;
65656;SDS011;57397;50.096;14.404;2023-03-13T12:16:41;1.40;;;0.80;;
65656;SDS011;57397;50.096;14.404;2023-03-13T12:19:14;1.52;;;0.70;;
65656;SDS011;57397;50.096;14.404;2023-03-13T12:21:48;1.40;;;0.70;;
65656;SDS011;57397;50.096;14.404;2023-03-13T12:24:18;1.48;;;0.70;;
65656;SDS011;57397;50.096;14.404;2023-03-13T12:29:52;2.08;;;0.70;;
65656;SDS011;57397;50.096;14.404;2023-03-13T12:35:07;0.80;;;0.60;;
65656;SDS011;57397;50.096;14.404;2023-03-13T12:45:53;0.70;;;0.60;;
65656;SDS011;57397;50.096;14.404;2023-03-13T12:59:45;1.17;;;0.80;;
65656;SDS011;57397;50.096;14.404;2023-03-13T13:02:22;1.33;;;0.70;;
65656;SDS011;57397;50.096;14.404;2023-03-13T13:04:50;1.27;;;0.70;;
65656;SDS011;57397;50.096;14.404;2023-03-13T13:07:31;1.42;;;0.70;;
65656;SDS011;57397;50.096;14.404;2023-03-13T13:12:33;1.63;;;0.80;;
65656;SDS011;57397;50.096;14.404;2023-03-13T13:15:00;0.95;;;0.73;;
65656;SDS011;57397;50.096;14.404;2023-03-13T13:17:30;1.17;;;0.82;;
65656;SDS011;57397;50.096;14.404;2023-03-13T13:25:51;0.80;;;0.70;;
65656;SDS011;57397;50.096;14.404;2023-03-13T13:30:46;1.13;;;0.80;;
65656;SDS011;57397;50.096;14.404;2023-03-13T13:38:35;1.60;;;0.80;;
65656;SDS011;57397;50.096;14.404;2023-03-13T13:43:36;2.22;;;1.00;;
65656;SDS011;57397;50.096;14.404;2023-03-13T13:46:22;1.75;;;0.80;;
65656;SDS011;57397;50.096;14.404;2023-03-13T13:51:35;1.33;;;0.90;;
65656;SDS011;57397;50.096;14.404;2023-03-13T13:54:02;1.63;;;0.80;;
65656;SDS011;57397;50.096;14.404;2023-03-13T13:56:51;1.20;;;0.80;;
65656;SDS011;57397;50.096;14.404;2023-03-13T14:02:11;0.90;;;0.70;;
65656;SDS011;57397;50.096;14.404;2023-03-13T14:04:50;0.98;;;0.70;;
65656;SDS011;57397;50.096;14.404;2023-03-13T14:07:19;0.88;;;0.70;;
65656;SDS011;57397;50.096;14.404;2023-03-13T14:09:53;1.13;;;0.70;;
65656;SDS011;57397;50.096;14.404;2023-03-13T14:12:45;2.55;;;1.20;;
65656;SDS011;57397;50.096;14.404;2023-03-13T14:15:20;1.25;;;0.80;;
65656;SDS011;57397;50.096;14.404;2023-03-13T14:17:51;2.15;;;0.80;;
65656;SDS011;57397;50.096;14.404;2023-03-13T14:20:34;0.90;;;0.70;;
65656;SDS011;57397;50.096;14.404;2023-03-13T14:23:02;0.98;;;0.60;;
65656;SDS011;57397;50.096;14.404;2023-03-13T14:25:41;1.38;;;0.80;;
65656;SDS011;57397;50.096;14.404;2023-03-13T14:28:17;1.00;;;0.80;;
65656;SDS011;57397;50.096;14.404;2023-03-13T14:30:51;1.10;;;0.70;;
65656;SDS011;57397;50.096;14.404;2023-03-13T14:33:17;1.27;;;0.75;;
65656;SDS011;57397;50.096;14.404;2023-03-13T14:35:44;1.63;;;0.80;;
65656;SDS011;57397;50.096;14.404;2023-03-13T14:38:17;1.10;;;0.70;;
65656;SDS011;57397;50.096;14.404;2023-03-13T14:40:54;1.00;;;0.80;;
65656;SDS011;57397;50.096;14.404;2023-03-13T14:45:59;0.95;;;0.70;;
65656;SDS011;57397;50.096;14.404;2023-03-13T14:51:42;2.00;;;1.02;;
65656;SDS011;57397;50.096;14.404;2023-03-13T14:53:53;1.23;;;0.80;;
65656;SDS011;57397;50.096;14.404;2023-03-13T14:56:59;2.35;;;0.80;;
65656;SDS011;57397;50.096;14.404;2023-03-13T14:59:24;1.30;;;0.90;;
65656;SDS011;57397;50.096;14.404;2023-03-13T15:02:00;1.20;;;0.93;;
65656;SDS011;57397;50.096;14.404;2023-03-13T15:04:47;2.45;;;0.90;;
65656;SDS011;57397;50.096;14.404;2023-03-13T15:07:16;1.25;;;0.80;;
65656;SDS011;57397;50.096;14.404;2023-03-13T15:09:43;1.10;;;0.80;;
65656;SDS011;57397;50.096;14.404;2023-03-13T15:12:12;1.10;;;0.80;;
65656;SDS011;57397;50.096;14.404;2023-03-13T15:14:40;1.20;;;0.98;;
65656;SDS011;57397;50.096;14.404;2023-03-13T15:17:11;2.33;;;1.15;;
65656;SDS011;57397;50.096;14.404;2023-03-13T15:19:39;1.63;;;1.00;;
65656;SDS011;57397;50.096;14.404;2023-03-13T15:22:04;1.20;;;1.00;;
65656;SDS011;57397;50.096;14.404;2023-03-13T15:24:30;1.75;;;1.00;;
65656;SDS011;57397;50.096;14.404;2023-03-13T15:26:55;0.90;;;0.77;;
65656;SDS011;57397;50.096;14.404;2023-03-13T15:29:21;2.45;;;0.90;;
65656;SDS011;57397;50.096;14.404;2023-03-13T15:31:46;2.38;;;0.90;;
65656;SDS011;57397;50.096;14.404;2023-03-13T15:34:13;2.10;;;0.90;;
65656;SDS011;57397;50.096;14.404;2023-03-13T15:36:39;1.15;;;0.80;;
65656;SDS011;57397;50.096;14.404;2023-03-13T15:39:16;1.40;;;0.80;;
65656;SDS011;57397;50.096;14.404;2023-03-13T15:41:44;1.45;;;0.80;;
65656;SDS011;57397;50.096;14.404;2023-03-13T15:44:09;0.93;;;0.80;;
65656;SDS011;57397;50.096;14.404;2023-03-13T15:46:35;1.25;;;0.90;;
65656;SDS011;57397;50.096;14.404;2023-03-13T15:49:01;0.98;;;0.88;;
65656;SDS011;57397;50.096;14.404;2023-03-13T15:51:26;2.50;;;1.10;;
65656;SDS011;57397;50.096;14.404;2023-03-13T15:53:52;2.97;;;1.00;;
65656;SDS011;57397;50.096;14.404;2023-03-13T15:56:18;1.60;;;0.85;;
65656;SDS011;57397;50.096;14.404;2023-03-13T15:58:46;1.83;;;0.82;;
65656;SDS011;57397;50.096;14.404;2023-03-13T16:01:14;1.20;;;0.80;;
65656;SDS011;57397;50.096;14.404;2023-03-13T16:03:40;1.65;;;0.90;;
65656;SDS011;57397;50.096;14.404;2023-03-13T16:06:17;2.20;;;0.90;;
65656;SDS011;57397;50.096;14.404;2023-03-13T16:08:44;1.88;;;1.05;;
65656;SDS011;57397;50.096;14.404;2023-03-13T16:11:11;1.75;;;1.00;;
65656;SDS011;57397;50.096;14.404;2023-03-13T16:13:38;2.13;;;0.90;;
65656;SDS011;57397;50.096;14.404;2023-03-13T16:16:09;1.90;;;1.00;;
65656;SDS011;57397;50.096;14.404;2023-03-13T16:18:43;1.90;;;1.02;;
65656;SDS011;57397;50.096;14.404;2023-03-13T16:21:11;1.95;;;0.93;;
65656;SDS011;57397;50.096;14.404;2023-03-13T16:23:39;2.00;;;1.00;;
65656;SDS011;57397;50.096;14.404;2023-03-13T16:26:08;2.20;;;1.10;;
65656;SDS011;57397;50.096;14.404;2023-03-13T16:28:38;1.95;;;1.08;;
65656;SDS011;57397;50.096;14.404;2023-03-13T16:31:03;1.40;;;1.00;;
65656;SDS011;57397;50.096;14.404;2023-03-13T16:33:29;1.27;;;0.90;;
65656;SDS011;57397;50.096;14.404;2023-03-13T16:35:55;2.20;;;1.15;;
65656;SDS011;57397;50.096;14.404;2023-03-13T16:38:20;1.80;;;1.10;;
65656;SDS011;57397;50.096;14.404;2023-03-13T16:40:46;1.50;;;1.00;;
65656;SDS011;57397;50.096;14.404;2023-03-13T16:43:11;2.65;;;1.10;;
65656;SDS011;57397;50.096;14.404;2023-03-13T16:45:37;2.60;;;1.23;;
65656;SDS011;57397;50.096;14.404;2023-03-13T16:48:02;1.95;;;1.00;;
65656;SDS011;57397;50.096;14.404;2023-03-13T16:50:32;2.35;;;1.20;;